Time;durP1;ratioP1;P1;durP2;ratioP2;P2;SDS_P1;SDS_P2;PMS_P1;PMS_P2;Temp;Humidity;BMP_temperature;BMP_pressure;BME280_temperature;BME280_humidity;BME280_pressure;Samples;Min_cycle;Max_cycle;Signal;HPM_P1;HPM_P2
2021/08/11 00:00:58;;;;;;;415.90;394.60;;;;;;;;;;5000351;28;20037;-64
2021/08/11 00:03:24;;;;;;;213.40;203.13;;;;;;;;;;4999732;28;20065;-64
2021/08/11 00:05:49;;;;;;;297.95;283.45;;;;;;;;;;5000115;28;20028;-64
2021/08/11 00:08:14;;;;;;;260.85;248.82;;;;;;;;;;4999620;28;20026;-65
2021/08/11 00:10:40;;;;;;;333.90;317.67;;;;;;;;;;4999016;28;20434;-64
2021/08/11 00:13:05;;;;;;;25.13;22.98;;;;;;;;;;5002774;28;20121;-64
2021/08/11 00:15:30;;;;;;;105.28;99.88;;;;;;;;;;5003322;28;20026;-64
2021/08/11 00:17:56;;;;;;;86.38;81.78;;;;;;;;;;5003433;28;20041;-64
2021/08/11 00:20:24;;;;;;;80.32;75.70;;;;;;;;;;5002367;28;20018;-64
2021/08/11 00:22:49;;;;;;;71.40;67.13;;;;;;;;;;5002815;28;20033;-64
2021/08/11 00:25:14;;;;;;;148.18;140.65;;;;;;;;;;5003604;28;20275;-64
2021/08/11 00:27:39;;;;;;;126.15;119.55;;;;;;;;;;5001812;28;20125;-64
2021/08/11 00:30:05;;;;;;;127.05;120.63;;;;;;;;;;5002748;28;20056;-65
2021/08/11 00:32:30;;;;;;;86.20;81.38;;;;;;;;;;5002102;28;20054;-65
2021/08/11 00:34:56;;;;;;;166.38;158.88;;;;;;;;;;5002099;28;20040;-65
2021/08/11 00:37:21;;;;;;;303.33;289.02;;;;;;;;;;5000630;28;20026;-64
2021/08/11 00:39:46;;;;;;;327.38;311.52;;;;;;;;;;5002216;28;20049;-65
2021/08/11 00:42:12;;;;;;;471.52;446.27;;;;;;;;;;5002168;28;20125;-65
2021/08/11 00:44:37;;;;;;;553.17;521.83;;;;;;;;;;5002825;28;20025;-64
2021/08/11 00:47:04;;;;;;;633.58;596.47;;;;;;;;;;5001514;28;20050;-64
2021/08/11 00:49:29;;;;;;;690.03;650.22;;;;;;;;;;5003825;28;20030;-64
2021/08/11 00:51:55;;;;;;;538.05;508.23;;;;;;;;;;5001950;28;20072;-64
2021/08/11 00:54:20;;;;;;;417.48;396.08;;;;;;;;;;5001925;28;20033;-64
2021/08/11 00:56:47;;;;;;;400.00;379.67;;;;;;;;;;5000324;28;20097;-64
2021/08/11 00:59:14;;;;;;;369.20;350.67;;;;;;;;;;5002305;28;20030;-65
2021/08/11 01:01:40;;;;;;;364.23;345.77;;;;;;;;;;5002107;28;20391;-65
2021/08/11 01:04:07;;;;;;;449.50;425.33;;;;;;;;;;4998114;28;20055;-65
2021/08/11 01:06:35;;;;;;;394.60;374.75;;;;;;;;;;5001893;28;20046;-65
2021/08/11 01:09:01;;;;;;;343.10;325.45;;;;;;;;;;5001204;28;20018;-65
2021/08/11 01:11:26;;;;;;;345.25;328.10;;;;;;;;;;5002487;28;20084;-64
2021/08/11 01:13:52;;;;;;;373.65;354.60;;;;;;;;;;4999467;28;20034;-65
2021/08/11 01:16:17;;;;;;;331.00;315.05;;;;;;;;;;5001433;28;20086;-65
2021/08/11 01:18:42;;;;;;;404.40;383.63;;;;;;;;;;5001766;28;20256;-64
2021/08/11 01:21:28;;;;;;;288.08;274.52;;;;;;;;;;4998584;28;20422;-65
2021/08/11 01:23:54;;;;;;;330.60;314.05;;;;;;;;;;5000791;28;20065;-65
2021/08/11 01:26:29;;;;;;;390.50;370.45;;;;;;;;;;5001035;28;20050;-65
2021/08/11 01:28:54;;;;;;;;;;;;;;;;;;5001198;28;20037;-65
2021/08/11 01:31:23;;;;;;;397.63;377.45;;;;;;;;;;4999636;28;19913;-65
2021/08/11 01:33:51;;;;;;;548.60;518.20;;;;;;;;;;5000374;28;20045;-65
2021/08/11 01:36:29;;;;;;;820.40;773.42;;;;;;;;;;5002308;28;20060;-65
2021/08/11 01:38:58;;;;;;;814.70;767.55;;;;;;;;;;5000837;28;20113;-64
2021/08/11 01:41:28;;;;;;;840.65;791.03;;;;;;;;;;5001848;28;20383;-64
2021/08/11 01:43:55;;;;;;;827.60;777.85;;;;;;;;;;5001168;28;20015;-64
2021/08/11 01:46:21;;;;;;;867.08;814.58;;;;;;;;;;5002389;28;20030;-64
2021/08/11 01:48:47;;;;;;;782.40;737.63;;;;;;;;;;5001152;28;20041;-64
2021/08/11 01:51:12;;;;;;;830.13;776.58;;;;;;;;;;5002118;28;20034;-64
2021/08/11 01:53:37;;;;;;;839.80;787.80;;;;;;;;;;4998194;28;20030;-64
2021/08/11 01:56:03;;;;;;;763.55;719.58;;;;;;;;;;4998169;28;20030;-64
2021/08/11 01:58:29;;;;;;;744.08;701.33;;;;;;;;;;5000635;28;20026;-64
2021/08/11 02:01:02;;;;;;;672.20;633.90;;;;;;;;;;4999880;28;20099;-64
2021/08/11 02:03:29;;;;;;;651.22;614.38;;;;;;;;;;5000465;28;20649;-65
2021/08/11 02:05:55;;;;;;;372.48;354.00;;;;;;;;;;5002250;28;20030;-64
2021/08/11 02:08:21;;;;;;;603.15;569.85;;;;;;;;;;5000067;28;20084;-64
2021/08/11 02:10:48;;;;;;;636.30;600.65;;;;;;;;;;4999558;28;20088;-64
2021/08/11 02:13:13;;;;;;;604.08;570.63;;;;;;;;;;5001668;28;20033;-64
2021/08/11 02:15:38;;;;;;;463.83;439.48;;;;;;;;;;5000041;28;20256;-65
2021/08/11 02:18:04;;;;;;;766.65;722.35;;;;;;;;;;5000440;28;20303;-65
2021/08/11 02:20:29;;;;;;;802.53;756.20;;;;;;;;;;5000478;28;20032;-65
2021/08/11 02:22:55;;;;;;;838.22;785.08;;;;;;;;;;4999877;28;20022;-64
2021/08/11 02:25:20;;;;;;;858.97;802.92;;;;;;;;;;4999712;28;20034;-64
2021/08/11 02:28:05;;;;;;;842.47;787.65;;;;;;;;;;5001908;28;20026;-64
2021/08/11 02:30:36;;;;;;;826.30;773.30;;;;;;;;;;5000319;28;20379;-64
2021/08/11 02:33:23;;;;;;;836.20;782.33;;;;;;;;;;5000861;28;20077;-64
2021/08/11 02:35:54;;;;;;;826.33;774.03;;;;;;;;;;4999279;28;20378;-65
2021/08/11 02:38:23;;;;;;;817.47;767.75;;;;;;;;;;5000331;28;20088;-65
2021/08/11 02:40:52;;;;;;;740.97;698.42;;;;;;;;;;4999470;28;20060;-64
2021/08/11 02:43:23;;;;;;;708.03;667.30;;;;;;;;;;5001719;28;20038;-65
2021/08/11 02:45:57;;;;;;;731.33;688.95;;;;;;;;;;4997886;28;20033;-64
2021/08/11 02:48:24;;;;;;;727.70;685.75;;;;;;;;;;5002057;28;20034;-64
2021/08/11 02:50:50;;;;;;;722.00;680.85;;;;;;;;;;4998479;28;20140;-65
2021/08/11 02:53:18;;;;;;;741.53;698.35;;;;;;;;;;5000813;28;20040;-64
2021/08/11 02:55:44;;;;;;;762.35;718.50;;;;;;;;;;4999698;28;20034;-63
2021/08/11 02:58:10;;;;;;;824.13;774.85;;;;;;;;;;5000127;28;20018;-63
2021/08/11 03:00:35;;;;;;;798.95;751.92;;;;;;;;;;4999021;28;20041;-64
2021/08/11 03:03:01;;;;;;;823.42;773.55;;;;;;;;;;5000343;28;20391;-65
2021/08/11 03:05:26;;;;;;;824.90;775.03;;;;;;;;;;4997623;28;20033;-64
2021/08/11 03:07:53;;;;;;;842.72;787.05;;;;;;;;;;5000810;28;20597;-63
2021/08/11 03:10:18;;;;;;;852.38;795.78;;;;;;;;;;4999979;28;20034;-63
2021/08/11 03:12:45;;;;;;;838.88;782.15;;;;;;;;;;5000260;28;20031;-63
2021/08/11 03:15:11;;;;;;;872.33;813.25;;;;;;;;;;5015266;28;20070;-63
2021/08/11 03:17:37;;;;;;;852.22;791.63;;;;;;;;;;4998793;28;20038;-63
2021/08/11 03:20:03;;;;;;;870.38;812.30;;;;;;;;;;4998773;28;20030;-64
2021/08/11 03:22:28;;;;;;;850.10;793.65;;;;;;;;;;4998597;28;20118;-64
2021/08/11 03:24:54;;;;;;;852.78;792.88;;;;;;;;;;4997926;28;20381;-63
2021/08/11 03:27:19;;;;;;;863.42;800.83;;;;;;;;;;4999813;28;20037;-63
2021/08/11 03:29:44;;;;;;;870.63;805.08;;;;;;;;;;4999746;28;20018;-63
2021/08/11 03:32:10;;;;;;;872.50;807.03;;;;;;;;;;4998920;28;20279;-63
2021/08/11 03:34:35;;;;;;;872.90;807.15;;;;;;;;;;4997136;28;20014;-63
2021/08/11 03:37:00;;;;;;;857.47;792.55;;;;;;;;;;4999301;28;20509;-63
2021/08/11 03:39:26;;;;;;;831.65;768.78;;;;;;;;;;4999280;28;20299;-63
2021/08/11 03:41:51;;;;;;;848.50;784.35;;;;;;;;;;5000943;28;20280;-64
2021/08/11 03:44:16;;;;;;;872.00;806.35;;;;;;;;;;4997241;28;20022;-63
2021/08/11 03:46:41;;;;;;;859.13;793.78;;;;;;;;;;4999735;28;20022;-63
2021/08/11 03:49:07;;;;;;;856.42;791.88;;;;;;;;;;5003161;28;20342;-63
2021/08/11 03:51:32;;;;;;;834.63;771.53;;;;;;;;;;5002646;28;20030;-63
2021/08/11 03:53:57;;;;;;;4.85;4.43;;;;;;;;;;5003658;28;20402;-63
2021/08/11 03:56:22;;;;;;;4.90;3.88;;;;;;;;;;5003469;28;20021;-64
2021/08/11 03:58:48;;;;;;;5.53;4.72;;;;;;;;;;5004369;28;20066;-65
2021/08/11 04:01:13;;;;;;;5.43;4.63;;;;;;;;;;5002271;28;20424;-65
2021/08/11 04:03:38;;;;;;;6.95;4.63;;;;;;;;;;5001362;28;20056;-65
2021/08/11 04:06:03;;;;;;;810.70;748.22;;;;;;;;;;5002519;28;20022;-65
2021/08/11 04:08:29;;;;;;;258.10;241.35;;;;;;;;;;5004336;28;20478;-65
2021/08/11 04:10:54;;;;;;;787.70;726.60;;;;;;;;;;5001761;28;20018;-65
2021/08/11 04:13:19;;;;;;;4.35;3.95;;;;;;;;;;5002304;28;20113;-65
2021/08/11 04:15:46;;;;;;;809.50;746.88;;;;;;;;;;5001991;28;20104;-64
2021/08/11 04:18:11;;;;;;;790.90;729.83;;;;;;;;;;5003364;28;20030;-64
2021/08/11 04:20:37;;;;;;;832.73;769.87;;;;;;;;;;5001842;28;20108;-64
2021/08/11 04:23:02;;;;;;;95.10;87.28;;;;;;;;;;5003410;28;20052;-64
2021/08/11 04:25:28;;;;;;;6.28;4.75;;;;;;;;;;5003124;28;20096;-64
2021/08/11 04:27:53;;;;;;;5.00;4.50;;;;;;;;;;5003548;28;20018;-64
2021/08/11 04:30:18;;;;;;;5.60;5.20;;;;;;;;;;5001182;28;20357;-64
2021/08/11 04:32:43;;;;;;;7.57;4.13;;;;;;;;;;5002455;28;20033;-64
2021/08/11 04:35:09;;;;;;;805.03;742.75;;;;;;;;;;5010297;28;20030;-64
2021/08/11 04:37:38;;;;;;;6.70;5.18;;;;;;;;;;5000574;28;20026;-64
2021/08/11 04:40:06;;;;;;;797.35;735.70;;;;;;;;;;5002679;28;20022;-64
2021/08/11 04:42:32;;;;;;;769.07;708.77;;;;;;;;;;5002966;28;20057;-64
2021/08/11 04:44:58;;;;;;;786.80;725.37;;;;;;;;;;5000444;28;20068;-64
2021/08/11 04:47:23;;;;;;;750.83;691.93;;;;;;;;;;5001868;28;20017;-64
2021/08/11 04:49:49;;;;;;;772.70;712.53;;;;;;;;;;5010807;28;20280;-64
2021/08/11 04:52:14;;;;;;;743.43;684.57;;;;;;;;;;5002099;28;20083;-64
2021/08/11 04:54:39;;;;;;;740.50;682.13;;;;;;;;;;5001975;28;20022;-64
2021/08/11 04:57:05;;;;;;;747.77;689.00;;;;;;;;;;5001948;28;20113;-64
2021/08/11 04:59:30;;;;;;;768.50;708.40;;;;;;;;;;4998913;28;20291;-64
2021/08/11 05:01:56;;;;;;;765.57;706.33;;;;;;;;;;5002980;28;20105;-64
2021/08/11 05:04:21;;;;;;;778.03;717.70;;;;;;;;;;5001356;28;20406;-64
2021/08/11 05:06:46;;;;;;;790.33;729.73;;;;;;;;;;5003473;28;20025;-64
2021/08/11 05:09:11;;;;;;;798.38;737.38;;;;;;;;;;5002762;28;20026;-63
2021/08/11 05:11:36;;;;;;;798.85;737.72;;;;;;;;;;5002649;28;20025;-63
2021/08/11 05:14:02;;;;;;;804.47;743.10;;;;;;;;;;5002781;28;20041;-63
2021/08/11 05:16:27;;;;;;;837.65;775.03;;;;;;;;;;5001901;28;20433;-63
2021/08/11 05:18:53;;;;;;;822.50;760.88;;;;;;;;;;5001664;28;20033;-63
2021/08/11 05:21:18;;;;;;;824.13;762.57;;;;;;;;;;5002608;28;20026;-63
2021/08/11 05:23:44;;;;;;;844.22;781.88;;;;;;;;;;5001354;28;20410;-63
2021/08/11 05:26:09;;;;;;;879.35;814.88;;;;;;;;;;5001271;28;20079;-64
2021/08/11 05:28:34;;;;;;;882.05;816.20;;;;;;;;;;4999307;28;20386;-64
2021/08/11 05:30:59;;;;;;;884.90;820.00;;;;;;;;;;5001311;28;20072;-64
2021/08/11 05:33:25;;;;;;;884.45;819.88;;;;;;;;;;5016343;28;20145;-64
2021/08/11 05:35:50;;;;;;;883.72;819.28;;;;;;;;;;5003430;28;20041;-64
2021/08/11 05:38:15;;;;;;;903.47;838.42;;;;;;;;;;5002316;28;20076;-64
2021/08/11 05:40:40;;;;;;;899.78;834.42;;;;;;;;;;4999046;28;20048;-64
2021/08/11 05:43:06;;;;;;;896.05;831.05;;;;;;;;;;5002023;28;20048;-64
2021/08/11 05:45:31;;;;;;;900.47;835.22;;;;;;;;;;5001501;28;20034;-64
2021/08/11 05:47:56;;;;;;;911.53;845.90;;;;;;;;;;5001210;28;20113;-64
2021/08/11 05:50:22;;;;;;;922.45;856.05;;;;;;;;;;5001455;28;20030;-65
2021/08/11 05:52:47;;;;;;;916.65;850.85;;;;;;;;;;5000905;28;20034;-65
2021/08/11 05:55:12;;;;;;;923.80;859.65;;;;;;;;;;4998660;28;20387;-65
2021/08/11 05:57:38;;;;;;;922.42;859.30;;;;;;;;;;5000926;28;20091;-65
2021/08/11 06:00:04;;;;;;;928.58;865.05;;;;;;;;;;5000579;28;20482;-64
2021/08/11 06:02:29;;;;;;;944.92;881.47;;;;;;;;;;5000275;28;20096;-64
2021/08/11 06:04:54;;;;;;;943.88;878.83;;;;;;;;;;4999946;28;20021;-65
2021/08/11 06:07:20;;;;;;;949.15;883.58;;;;;;;;;;5001851;28;20030;-64
2021/08/11 06:09:46;;;;;;;943.30;878.10;;;;;;;;;;4999752;28;20025;-64
2021/08/11 06:12:11;;;;;;;947.38;882.95;;;;;;;;;;5001579;28;20034;-64
2021/08/11 06:14:36;;;;;;;961.85;895.47;;;;;;;;;;4996349;28;20069;-64
2021/08/11 06:17:02;;;;;;;952.83;888.30;;;;;;;;;;5000366;28;20018;-64
2021/08/11 06:19:27;;;;;;;965.08;899.42;;;;;;;;;;4999683;28;20022;-64
2021/08/11 06:21:52;;;;;;;955.25;890.25;;;;;;;;;;5001906;28;20112;-64
2021/08/11 06:24:18;;;;;;;958.35;896.80;;;;;;;;;;4998730;28;20029;-64
2021/08/11 06:26:44;;;;;;;954.88;895.95;;;;;;;;;;5001252;28;20513;-64
2021/08/11 06:29:09;;;;;;;960.33;901.88;;;;;;;;;;4982871;28;20030;-64
2021/08/11 06:31:34;;;;;;;950.83;893.67;;;;;;;;;;4998248;28;20025;-63
2021/08/11 06:34:00;;;;;;;937.50;882.58;;;;;;;;;;4998425;28;20354;-64
2021/08/11 06:36:25;;;;;;;891.28;839.67;;;;;;;;;;4998578;28;20021;-63
2021/08/11 06:38:51;;;;;;;933.78;879.45;;;;;;;;;;4999692;28;20044;-63
2021/08/11 06:41:17;;;;;;;926.67;872.72;;;;;;;;;;4999785;28;20069;-64
2021/08/11 06:43:43;;;;;;;966.55;909.33;;;;;;;;;;5000111;28;20108;-65
2021/08/11 06:46:08;;;;;;;973.78;914.80;;;;;;;;;;5000633;28;20022;-65
2021/08/11 06:48:35;;;;;;;979.78;919.72;;;;;;;;;;5000872;28;20029;-64
2021/08/11 06:51:00;;;;;;;972.00;912.63;;;;;;;;;;4998660;28;20076;-64
2021/08/11 06:53:25;;;;;;;980.67;921.05;;;;;;;;;;5001573;28;20034;-65
2021/08/11 06:55:50;;;;;;;980.65;921.17;;;;;;;;;;5001272;28;20077;-64
2021/08/11 06:58:16;;;;;;;981.83;921.90;;;;;;;;;;4982282;28;20053;-64
2021/08/11 07:00:41;;;;;;;987.15;926.75;;;;;;;;;;5000016;28;20041;-65
2021/08/11 07:03:06;;;;;;;976.85;916.83;;;;;;;;;;4997960;28;20430;-64
2021/08/11 07:05:31;;;;;;;971.15;912.63;;;;;;;;;;4999022;28;20607;-64
2021/08/11 07:07:57;;;;;;;965.55;907.35;;;;;;;;;;4980564;28;20725;-63
2021/08/11 07:10:22;;;;;;;982.97;923.28;;;;;;;;;;4998944;28;20575;-64
2021/08/11 07:12:48;;;;;;;976.72;917.97;;;;;;;;;;4999874;28;20081;-64
2021/08/11 07:15:13;;;;;;;976.92;918.22;;;;;;;;;;5000224;28;20149;-63
2021/08/11 07:17:48;;;;;;;963.28;906.05;;;;;;;;;;4996274;28;20438;-64
2021/08/11 07:20:14;;;;;;;959.17;902.38;;;;;;;;;;4998857;28;20026;-64
2021/08/11 07:22:39;;;;;;;962.78;904.88;;;;;;;;;;5003927;28;20092;-64
2021/08/11 07:25:05;;;;;;;967.10;908.97;;;;;;;;;;5003296;28;20049;-64
2021/08/11 07:27:30;;;;;;;981.95;922.63;;;;;;;;;;5002936;28;20029;-64
2021/08/11 07:29:55;;;;;;;959.42;902.45;;;;;;;;;;4986809;28;20402;-65
2021/08/11 07:32:20;;;;;;;918.58;864.90;;;;;;;;;;5004074;28;20275;-64
2021/08/11 07:34:46;;;;;;;940.92;885.38;;;;;;;;;;5002558;28;20066;-64
2021/08/11 07:37:11;;;;;;;945.53;890.25;;;;;;;;;;5002719;28;20072;-64
2021/08/11 07:39:36;;;;;;;919.05;865.28;;;;;;;;;;5003465;28;20038;-64
2021/08/11 07:42:01;;;;;;;946.95;890.95;;;;;;;;;;5004156;28;20033;-64
2021/08/11 07:44:27;;;;;;;960.92;904.33;;;;;;;;;;5001954;28;20287;-64
2021/08/11 07:46:52;;;;;;;949.67;893.47;;;;;;;;;;5001971;28;20376;-64
2021/08/11 07:49:17;;;;;;;997.28;937.28;;;;;;;;;;5001940;28;20032;-64
2021/08/11 07:51:43;;;;;;;998.03;937.15;;;;;;;;;;4985613;28;20022;-64
2021/08/11 07:54:08;;;;;;;1013.13;950.42;;;;;;;;;;5004204;28;20050;-64
2021/08/11 07:56:33;;;;;;;1005.78;942.83;;;;;;;;;;5004810;28;20383;-65
2021/08/11 07:58:58;;;;;;;1013.63;949.75;;;;;;;;;;5002418;28;20026;-64
2021/08/11 08:01:24;;;;;;;1012.88;950.78;;;;;;;;;;5001356;28;20057;-63
2021/08/11 08:03:49;;;;;;;1019.78;957.50;;;;;;;;;;5003284;28;20099;-63
2021/08/11 08:06:14;;;;;;;1016.80;954.97;;;;;;;;;;5002548;28;20327;-64
2021/08/11 08:08:39;;;;;;;1017.03;954.50;;;;;;;;;;5001568;28;20359;-63
2021/08/11 08:11:05;;;;;;;1009.13;945.92;;;;;;;;;;5001396;28;20024;-64
2021/08/11 08:13:30;;;;;;;1014.83;952.53;;;;;;;;;;5003335;28;20517;-63
2021/08/11 08:15:55;;;;;;;1003.50;942.80;;;;;;;;;;5001563;28;20075;-62
2021/08/11 08:18:23;;;;;;;1015.42;952.42;;;;;;;;;;5002052;28;20045;-64
2021/08/11 08:20:50;;;;;;;1020.88;957.45;;;;;;;;;;5001099;28;20029;-65
2021/08/11 08:23:15;;;;;;;1021.72;958.55;;;;;;;;;;5000774;28;20358;-64
2021/08/11 08:25:41;;;;;;;1026.65;963.30;;;;;;;;;;5002855;28;20038;-64
2021/08/11 08:28:06;;;;;;;1025.15;961.42;;;;;;;;;;5001708;28;20030;-64
2021/08/11 08:30:31;;;;;;;1029.15;965.20;;;;;;;;;;5002723;28;20065;-64
2021/08/11 08:32:56;;;;;;;1029.28;964.72;;;;;;;;;;5000499;28;20056;-64
2021/08/11 08:35:22;;;;;;;1022.45;957.63;;;;;;;;;;5001898;28;20041;-64
2021/08/11 08:37:47;;;;;;;1033.40;967.80;;;;;;;;;;5000503;28;20045;-64
2021/08/11 08:40:13;;;;;;;1036.97;970.28;;;;;;;;;;5000975;28;20034;-64
2021/08/11 08:42:42;;;;;;;1029.03;963.17;;;;;;;;;;5001194;28;20097;-64
2021/08/11 08:45:08;;;;;;;1039.88;973.22;;;;;;;;;;5001470;28;20075;-64
2021/08/11 08:47:35;;;;;;;1039.32;972.42;;;;;;;;;;5002239;28;20181;-64
2021/08/11 08:50:01;;;;;;;1020.70;955.60;;;;;;;;;;5000617;28;20097;-64
2021/08/11 08:52:27;;;;;;;1034.75;969.78;;;;;;;;;;5001435;28;20095;-64
2021/08/11 08:54:55;;;;;;;1044.03;978.22;;;;;;;;;;5001311;28;20029;-64
2021/08/11 08:57:20;;;;;;;1032.70;968.67;;;;;;;;;;5000363;28;20108;-64
2021/08/11 08:59:46;;;;;;;1019.00;957.25;;;;;;;;;;5002729;28;20061;-63
2021/08/11 09:02:12;;;;;;;1008.97;948.40;;;;;;;;;;5000326;28;20092;-63
2021/08/11 09:04:39;;;;;;;1010.50;949.78;;;;;;;;;;5001917;28;20057;-63
2021/08/11 09:07:15;;;;;;;914.78;860.22;;;;;;;;;;4999630;28;20295;-63
2021/08/11 09:09:41;;;;;;;933.33;877.28;;;;;;;;;;5001449;28;20041;-63
2021/08/11 09:12:12;;;;;;;953.03;895.85;;;;;;;;;;4999937;28;20033;-65
2021/08/11 09:14:38;;;;;;;957.67;900.70;;;;;;;;;;4998668;28;20026;-63
2021/08/11 09:17:04;;;;;;;943.83;887.33;;;;;;;;;;5000975;28;20294;-63
2021/08/11 09:19:39;;;;;;;920.08;864.08;;;;;;;;;;4999310;28;20317;-63
2021/08/11 09:22:06;;;;;;;945.65;888.60;;;;;;;;;;5000860;28;20026;-64
2021/08/11 09:24:34;;;;;;;983.78;925.28;;;;;;;;;;4999375;28;20014;-64
2021/08/11 09:27:15;;;;;;;894.38;840.85;;;;;;;;;;5002024;28;20428;-64
2021/08/11 09:29:59;;;;;;;907.95;852.83;;;;;;;;;;5001605;28;20461;-64
2021/08/11 09:32:25;;;;;;;897.60;843.88;;;;;;;;;;5002484;28;20056;-63
2021/08/11 09:34:50;;;;;;;800.50;750.80;;;;;;;;;;4998756;28;20097;-63
2021/08/11 09:37:16;;;;;;;830.22;779.70;;;;;;;;;;5000752;28;20080;-62
2021/08/11 09:39:42;;;;;;;814.25;763.88;;;;;;;;;;4998913;28;20057;-63
2021/08/11 09:42:07;;;;;;;833.65;782.88;;;;;;;;;;5001152;28;20113;-62
2021/08/11 09:44:33;;;;;;;840.38;789.45;;;;;;;;;;4999535;28;20031;-62
2021/08/11 09:47:11;;;;;;;828.03;777.78;;;;;;;;;;5000478;28;20375;-63
2021/08/11 09:49:36;;;;;;;763.15;716.25;;;;;;;;;;4998616;28;20034;-64
2021/08/11 09:52:02;;;;;;;807.35;758.20;;;;;;;;;;5001035;28;20053;-64
2021/08/11 09:54:29;;;;;;;806.22;755.90;;;;;;;;;;4998564;28;20482;-64
2021/08/11 09:56:54;;;;;;;828.88;778.67;;;;;;;;;;4999277;28;20637;-63
2021/08/11 09:59:19;;;;;;;859.67;807.78;;;;;;;;;;5001311;28;20030;-64
2021/08/11 10:01:45;;;;;;;840.90;789.47;;;;;;;;;;5000077;28;20052;-64
2021/08/11 10:04:11;;;;;;;873.83;820.78;;;;;;;;;;4999759;28;20054;-64
2021/08/11 10:06:37;;;;;;;937.58;880.88;;;;;;;;;;4998638;28;20028;-64
2021/08/11 10:09:16;;;;;;;960.17;902.42;;;;;;;;;;4999000;28;20026;-64
2021/08/11 10:11:43;;;;;;;976.67;918.65;;;;;;;;;;4997246;28;20394;-64
2021/08/11 10:14:10;;;;;;;988.60;929.88;;;;;;;;;;5000363;28;20014;-64
2021/08/11 10:16:36;;;;;;;980.20;921.67;;;;;;;;;;4998192;28;20033;-64
2021/08/11 10:19:05;;;;;;;980.50;921.50;;;;;;;;;;4997598;28;20406;-64
2021/08/11 10:21:32;;;;;;;955.97;898.40;;;;;;;;;;4980960;28;20636;-63
2021/08/11 10:23:58;;;;;;;976.10;917.78;;;;;;;;;;4999219;28;20026;-63
2021/08/11 10:26:23;;;;;;;954.13;897.22;;;;;;;;;;4999243;28;20046;-63
2021/08/11 10:28:49;;;;;;;997.65;938.10;;;;;;;;;;5000181;28;20435;-63
2021/08/11 10:31:14;;;;;;;1020.95;959.33;;;;;;;;;;4997227;28;20112;-61
2021/08/11 10:33:40;;;;;;;1033.28;970.63;;;;;;;;;;4999131;28;20045;-63
2021/08/11 10:36:06;;;;;;;974.92;916.25;;;;;;;;;;4999220;28;20030;-63
2021/08/11 10:38:34;;;;;;;1023.80;961.63;;;;;;;;;;4999035;28;20478;-63
2021/08/11 10:40:59;;;;;;;947.38;890.58;;;;;;;;;;4998326;28;20025;-63
2021/08/11 10:43:32;;;;;;;931.67;875.63;;;;;;;;;;4999970;28;20018;-63
2021/08/11 10:46:00;;;;;;;885.45;831.58;;;;;;;;;;4999668;28;20482;-63
2021/08/11 10:48:25;;;;;;;826.45;775.63;;;;;;;;;;4999318;28;20033;-63
2021/08/11 10:50:51;;;;;;;936.85;881.15;;;;;;;;;;4998256;28;20038;-64
2021/08/11 10:53:16;;;;;;;992.70;933.17;;;;;;;;;;5001580;28;20041;-64
2021/08/11 10:55:44;;;;;;;927.67;871.95;;;;;;;;;;4998642;28;20042;-65
2021/08/11 10:58:09;;;;;;;1007.00;946.67;;;;;;;;;;4987418;28;20029;-64
2021/08/11 11:00:40;;;;;;;1061.50;995.08;;;;;;;;;;5000281;28;20083;-64
2021/08/11 11:03:05;;;;;;;582.05;546.25;;;;;;;;;;5001333;28;20045;-62
2021/08/11 11:05:32;;;;;;;637.60;597.42;;;;;;;;;;4998008;28;20034;-63
2021/08/11 11:10:35;;;;;;;664.63;622.42;;;;;;;;;;4996340;28;20056;-63
2021/08/11 11:13:01;;;;;;;641.97;601.40;;;;;;;;;;4998644;28;20026;-63
2021/08/11 11:15:44;;;;;;;513.40;482.80;;;;;;;;;;4997213;28;20121;-63
2021/08/11 11:18:10;;;;;;;697.25;653.17;;;;;;;;;;4997975;28;20133;-63
2021/08/11 11:20:35;;;;;;;668.80;627.08;;;;;;;;;;4997494;28;20030;-63
2021/08/11 11:23:01;;;;;;;766.92;718.53;;;;;;;;;;4997846;28;20252;-63
2021/08/11 11:25:45;;;;;;;695.42;650.92;;;;;;;;;;4998174;28;20026;-63
2021/08/11 11:28:10;;;;;;;586.05;550.78;;;;;;;;;;5000542;28;20069;-64
2021/08/11 11:30:37;;;;;;;607.75;569.97;;;;;;;;;;4995790;28;20217;-63
2021/08/11 11:33:17;;;;;;;596.88;560.40;;;;;;;;;;4998840;28;20403;-63
2021/08/11 11:35:44;;;;;;;666.30;624.00;;;;;;;;;;5000206;28;20057;-63
2021/08/11 11:38:11;;;;;;;606.63;569.47;;;;;;;;;;4999091;28;20039;-62
2021/08/11 11:40:54;;;;;;;527.30;496.13;;;;;;;;;;4998177;28;20405;-62
2021/08/11 11:43:27;;;;;;;311.90;294.73;;;;;;;;;;4996615;28;20141;-63
2021/08/11 11:45:53;;;;;;;403.10;380.75;;;;;;;;;;4999176;28;20026;-64
2021/08/11 11:48:19;;;;;;;535.65;504.23;;;;;;;;;;4980917;28;20049;-63
2021/08/11 11:50:45;;;;;;;273.30;259.38;;;;;;;;;;4999487;28;20283;-63
2021/08/11 11:53:21;;;;;;;436.42;412.90;;;;;;;;;;4998997;28;20026;-63
2021/08/11 11:55:46;;;;;;;439.08;414.48;;;;;;;;;;5001163;28;20104;-63
2021/08/11 11:58:13;;;;;;;469.42;442.35;;;;;;;;;;4998266;28;20030;-63
2021/08/11 12:00:39;;;;;;;558.40;525.03;;;;;;;;;;4998825;28;20057;-63
2021/08/11 12:03:05;;;;;;;917.83;862.20;;;;;;;;;;4998684;28;20038;-63
2021/08/11 12:05:47;;;;;;;748.83;701.83;;;;;;;;;;4997370;28;20141;-63
2021/08/11 12:08:13;;;;;;;5.07;4.63;;;;;;;;;;4998283;28;20383;-63
2021/08/11 12:10:41;;;;;;;7.57;5.03;;;;;;;;;;5002139;28;20022;-63
2021/08/11 12:13:06;;;;;;;4.95;4.65;;;;;;;;;;5002571;28;20033;-63
2021/08/11 12:15:33;;;;;;;4.65;4.22;;;;;;;;;;5002608;28;20494;-63
2021/08/11 12:18:00;;;;;;;4.85;4.35;;;;;;;;;;5002475;28;20081;-63
2021/08/11 12:20:28;;;;;;;4.43;4.13;;;;;;;;;;5003653;28;20054;-63
2021/08/11 12:22:53;;;;;;;4.10;3.80;;;;;;;;;;5002859;28;20025;-63
2021/08/11 12:25:19;;;;;;;5.28;4.60;;;;;;;;;;5005620;28;20045;-63
2021/08/11 12:28:04;;;;;;;4.72;4.43;;;;;;;;;;5002216;28;20427;-63
2021/08/11 12:30:29;;;;;;;4.20;3.90;;;;;;;;;;5003704;28;20032;-63
2021/08/11 12:32:56;;;;;;;4.50;4.15;;;;;;;;;;5003453;28;20034;-63
2021/08/11 12:35:22;;;;;;;4.65;4.05;;;;;;;;;;5003868;28;20112;-63
2021/08/11 12:37:47;;;;;;;4.45;4.05;;;;;;;;;;5003225;28;20116;-63
2021/08/11 12:40:32;;;;;;;4.57;4.28;;;;;;;;;;4992464;28;20030;-63
2021/08/11 12:42:58;;;;;;;7.00;4.25;;;;;;;;;;5002692;28;20022;-63
2021/08/11 12:45:23;;;;;;;4.68;4.38;;;;;;;;;;4984262;28;20356;-62
2021/08/11 12:47:49;;;;;;;4.13;3.83;;;;;;;;;;5000957;28;20030;-63
2021/08/11 12:50:18;;;;;;;5.70;3.60;;;;;;;;;;5001752;28;20026;-63
2021/08/11 12:52:53;;;;;;;6.60;3.40;;;;;;;;;;5002170;28;20037;-63
2021/08/11 12:55:29;;;;;;;3.83;3.53;;;;;;;;;;5000295;28;20125;-63
2021/08/11 12:57:54;;;;;;;4.30;3.90;;;;;;;;;;5002487;28;20029;-63
2021/08/11 13:00:37;;;;;;;4.70;4.00;;;;;;;;;;5000772;28;20030;-63
2021/08/11 13:03:02;;;;;;;4.45;4.15;;;;;;;;;;5000671;28;20046;-62
2021/08/11 13:05:27;;;;;;;5.72;4.07;;;;;;;;;;5004281;28;20032;-62
2021/08/11 13:07:56;;;;;;;3.42;3.22;;;;;;;;;;5003226;28;20026;-63
2021/08/11 13:10:22;;;;;;;4.15;3.60;;;;;;;;;;5002847;28;20029;-63
2021/08/11 13:12:47;;;;;;;4.93;4.53;;;;;;;;;;5001380;28;20113;-62
2021/08/11 13:15:20;;;;;;;4.57;4.18;;;;;;;;;;5001557;28;20109;-63
2021/08/11 13:17:49;;;;;;;4.72;4.40;;;;;;;;;;4999786;28;20517;-64
2021/08/11 13:20:15;;;;;;;4.60;4.28;;;;;;;;;;5000674;28;20026;-63
2021/08/11 13:22:41;;;;;;;4.80;4.47;;;;;;;;;;4986007;28;20075;-63
2021/08/11 13:25:07;;;;;;;4.28;3.85;;;;;;;;;;5001835;28;20104;-63
2021/08/11 13:27:33;;;;;;;6.90;3.80;;;;;;;;;;5000488;28;20098;-64
2021/08/11 13:29:58;;;;;;;3.80;3.50;;;;;;;;;;5000337;28;20041;-64
2021/08/11 13:32:24;;;;;;;4.38;3.97;;;;;;;;;;5001098;28;20027;-64
2021/08/11 13:34:49;;;;;;;4.38;4.07;;;;;;;;;;5001951;28;20075;-64
2021/08/11 13:37:14;;;;;;;4.55;4.30;;;;;;;;;;5000025;28;20291;-64
2021/08/11 13:39:40;;;;;;;3.40;3.20;;;;;;;;;;5000425;28;20022;-64
2021/08/11 13:42:05;;;;;;;4.72;4.32;;;;;;;;;;5001972;28;20347;-64
2021/08/11 13:44:30;;;;;;;4.88;3.85;;;;;;;;;;5003864;28;20034;-64
2021/08/11 13:46:57;;;;;;;4.15;3.88;;;;;;;;;;4996702;28;20068;-64
2021/08/11 13:49:22;;;;;;;4.10;3.80;;;;;;;;;;4983104;28;20291;-64
2021/08/11 13:51:48;;;;;;;4.38;4.05;;;;;;;;;;5000929;28;20105;-64
2021/08/11 13:54:13;;;;;;;4.93;4.43;;;;;;;;;;5000664;28;20027;-62
2021/08/11 13:56:38;;;;;;;4.43;4.03;;;;;;;;;;5000038;28;20044;-64
2021/08/11 13:59:04;;;;;;;4.70;4.28;;;;;;;;;;4986577;28;20501;-64
2021/08/11 14:01:29;;;;;;;3.88;3.67;;;;;;;;;;5000177;28;20049;-64